Time;durP1;ratioP1;P1;durP2;ratioP2;P2;SDS_P1;SDS_P2;PMS_P1;PMS_P2;Temp;Humidity;BMP_temperature;BMP_pressure;BME280_temperature;BME280_humidity;BME280_pressure;Samples;Min_cycle;Max_cycle;Signal;HPM_P1;HPM_P2
2021/05/13 00:01:22;;;;;;;10.13;3.85;;;15.00;66.00;;;;;;5072897;28;20036;-59
2021/05/13 00:03:49;;;;;;;11.68;3.55;;;14.90;66.10;;;;;;5073038;28;20021;-59
2021/05/13 00:06:15;;;;;;;11.18;3.63;;;14.90;66.40;;;;;;5071918;28;20036;-59
2021/05/13 00:08:41;;;;;;;6.82;2.70;;;14.90;66.50;;;;;;5072839;28;20116;-59
2021/05/13 00:11:17;;;;;;;9.20;3.05;;;14.90;66.70;;;;;;5072289;28;20024;-59
2021/05/13 00:13:43;;;;;;;6.40;2.97;;;14.80;66.70;;;;;;5059295;28;20059;-59
2021/05/13 00:16:09;;;;;;;12.52;3.20;;;14.80;66.60;;;;;;5072759;28;20072;-59
2021/05/13 00:18:34;;;;;;;6.05;2.88;;;14.80;66.70;;;;;;5072403;28;20028;-59
2021/05/13 00:21:00;;;;;;;9.45;3.03;;;14.80;66.70;;;;;;5072020;28;20067;-59
2021/05/13 00:23:26;;;;;;;9.35;3.20;;;14.70;66.50;;;;;;5072428;28;20052;-59
2021/05/13 00:25:52;;;;;;;13.93;3.50;;;14.70;66.50;;;;;;5072466;28;20067;-59
2021/05/13 00:28:21;;;;;;;14.63;3.65;;;14.70;66.70;;;;;;5071848;28;20035;-59
2021/05/13 00:30:47;;;;;;;10.90;3.90;;;14.60;66.80;;;;;;5072647;28;20056;-59
2021/05/13 00:33:13;;;;;;;10.77;3.58;;;14.70;67.10;;;;;;5071880;28;20029;-59
2021/05/13 00:35:39;;;;;;;10.35;3.40;;;14.60;67.30;;;;;;5072378;28;20391;-59
2021/05/13 00:38:04;;;;;;;9.77;3.50;;;14.60;68.10;;;;;;5072364;28;20029;-59
2021/05/13 00:40:30;;;;;;;11.35;3.30;;;14.60;67.30;;;;;;5071606;28;20107;-59
2021/05/13 00:42:56;;;;;;;6.65;2.58;;;14.50;67.00;;;;;;5072566;28;20030;-59
2021/05/13 00:45:22;;;;;;;12.98;4.07;;;14.50;67.10;;;;;;5075589;28;20028;-59
2021/05/13 00:50:24;;;;;;;8.75;2.72;;;14.40;67.00;;;;;;5075953;28;20388;-59
2021/05/13 00:52:50;;;;;;;6.88;3.08;;;14.40;66.80;;;;;;5074947;28;20036;-59
2021/05/13 00:55:17;;;;;;;4.47;1.88;;;14.40;66.60;;;;;;5075376;28;20175;-59
2021/05/13 00:57:48;;;;;;;4.68;1.60;;;14.30;66.50;;;;;;5076206;28;20074;-59
2021/05/13 01:02:57;;;;;;;130.20;3.90;;;14.30;66.90;;;;;;5061552;28;20471;-59
2021/05/13 01:05:24;;;;;;;5.68;2.47;;;14.30;67.10;;;;;;5074723;28;20025;-59
2021/05/13 01:07:49;;;;;;;2.75;1.80;;;14.20;67.20;;;;;;5075913;28;20099;-59
2021/05/13 01:10:16;;;;;;;55.63;3.00;;;14.20;67.10;;;;;;5075242;28;20486;-59
2021/05/13 01:12:42;;;;;;;82.95;3.20;;;14.10;67.10;;;;;;5075799;28;20029;-59
2021/05/13 01:15:34;;;;;;;110.43;3.25;;;14.10;67.00;;;;;;5075398;28;20105;-59
2021/05/13 01:20:29;;;;;;;61.70;2.35;;;14.10;66.80;;;;;;5075734;28;20111;-59
2021/05/13 01:22:56;;;;;;;20.70;1.45;;;14.10;66.60;;;;;;5074838;28;20029;-59
2021/05/13 01:25:23;;;;;;;5.82;1.58;;;14.00;66.50;;;;;;5075389;28;20496;-59
2021/05/13 01:27:49;;;;;;;3.75;1.48;;;14.00;66.70;;;;;;5075458;28;20086;-59
2021/05/13 01:30:16;;;;;;;63.95;2.53;;;14.00;66.80;;;;;;5074522;28;20021;-59
2021/05/13 01:32:42;;;;;;;107.22;3.42;;;13.90;66.70;;;;;;5075552;28;20035;-59
2021/05/13 01:35:10;;;;;;;141.90;3.85;;;13.90;66.80;;;;;;5075436;28;20025;-59
2021/05/13 01:37:36;;;;;;;57.90;2.50;;;13.90;66.90;;;;;;5074452;28;20020;-59
2021/05/13 01:40:02;;;;;;;54.92;2.60;;;13.90;67.00;;;;;;5075350;28;20043;-59
2021/05/13 01:42:28;;;;;;;18.38;2.05;;;13.80;66.80;;;;;;5075149;28;20024;-59
2021/05/13 01:44:53;;;;;;;35.30;2.20;;;13.80;67.00;;;;;;5074486;28;20060;-59
2021/05/13 01:47:19;;;;;;;2.20;1.30;;;13.80;67.10;;;;;;5075254;28;20024;-59
2021/05/13 01:49:45;;;;;;;1.65;1.25;;;13.80;67.10;;;;;;5075373;28;20070;-59
2021/05/13 01:52:10;;;;;;;1.20;1.10;;;13.80;67.00;;;;;;5074267;28;20501;-59
2021/05/13 01:54:36;;;;;;;7.40;1.33;;;13.70;67.00;;;;;;5075062;28;20047;-59
2021/05/13 01:57:06;;;;;;;14.63;2.53;;;13.70;66.80;;;;;;5074048;28;20063;-59
2021/05/13 01:59:32;;;;;;;9.55;2.10;;;13.70;67.00;;;;;;5074404;28;20379;-59
2021/05/13 02:01:59;;;;;;;42.05;2.47;;;13.70;67.20;;;;;;5075117;28;20040;-59
2021/05/13 02:04:26;;;;;;;67.13;2.30;;;13.60;67.30;;;;;;5074785;28;20028;-59
2021/05/13 02:06:51;;;;;;;18.42;1.70;;;13.70;67.60;;;;;;5074803;28;20039;-59
2021/05/13 02:09:17;;;;;;;2.92;1.50;;;13.60;67.70;;;;;;5074679;28;20028;-59
2021/05/13 02:11:42;;;;;;;2.38;1.23;;;13.60;67.50;;;;;;5073972;28;20025;-59
2021/05/13 02:14:08;;;;;;;2.40;1.25;;;13.60;67.30;;;;;;5074450;28;20094;-59
2021/05/13 02:16:34;;;;;;;2.30;1.20;;;13.50;67.00;;;;;;5074629;28;20044;-59
2021/05/13 02:18:59;;;;;;;3.72;1.20;;;13.50;66.90;;;;;;5072739;28;20028;-59
2021/05/13 02:21:25;;;;;;;2.72;1.17;;;13.50;67.00;;;;;;5074459;28;20024;-59
2021/05/13 02:23:51;;;;;;;3.60;1.30;;;13.40;67.30;;;;;;5075030;28;20033;-59
2021/05/13 02:26:20;;;;;;;4.45;1.63;;;13.40;67.20;;;;;;5073711;28;20036;-59
2021/05/13 02:28:46;;;;;;;7.30;1.73;;;13.40;67.50;;;;;;5074191;28;20012;-59
2021/05/13 02:31:13;;;;;;;1.98;1.30;;;13.40;67.60;;;;;;5074524;28;20082;-59
2021/05/13 02:33:38;;;;;;;3.85;1.58;;;13.30;67.50;;;;;;5073638;28;20012;-59
2021/05/13 02:36:04;;;;;;;3.50;1.60;;;13.30;67.40;;;;;;5074354;28;20082;-59
2021/05/13 02:38:30;;;;;;;8.25;2.28;;;13.30;67.30;;;;;;5074036;28;20039;-59
2021/05/13 02:40:56;;;;;;;42.17;2.20;;;13.30;67.60;;;;;;5073470;28;20029;-59
2021/05/13 02:43:22;;;;;;;52.58;2.30;;;13.30;67.90;;;;;;5074109;28;20036;-59
2021/05/13 02:45:48;;;;;;;23.25;1.40;;;13.30;68.20;;;;;;5074108;28;20123;-59
2021/05/13 02:48:14;;;;;;;29.15;1.42;;;13.20;68.30;;;;;;5073441;28;20162;-59
2021/05/13 02:50:39;;;;;;;24.38;1.20;;;13.20;68.30;;;;;;5073801;28;20039;-59
2021/05/13 02:53:05;;;;;;;7.70;1.30;;;13.10;68.40;;;;;;5074044;28;20028;-59
2021/05/13 02:55:31;;;;;;;1.08;1.00;;;13.10;68.60;;;;;;5072707;28;20098;-59
2021/05/13 02:57:59;;;;;;;1.58;1.25;;;13.10;68.70;;;;;;5064986;28;21026;-59
2021/05/13 03:02:56;;;;;;;3.30;1.15;;;13.00;69.10;;;;;;5072980;28;20111;-59
2021/05/13 03:05:26;;;;;;;11.57;1.48;;;13.00;69.20;;;;;;5073652;28;20104;-59
2021/05/13 03:07:54;;;;;;;0.80;0.80;;;13.00;69.40;;;;;;5072740;28;20047;-58
2021/05/13 03:12:52;;;;;;;1.35;1.20;;;12.90;69.40;;;;;;5073333;28;20028;-59
2021/05/13 03:15:18;;;;;;;4.60;1.08;;;13.00;69.50;;;;;;5072772;28;20032;-59
2021/05/13 03:17:44;;;;;;;27.67;1.98;;;12.90;69.60;;;;;;5073271;28;20029;-59
2021/05/13 03:20:13;;;;;;;2.28;1.40;;;12.90;69.70;;;;;;5073514;28;20033;-59
2021/05/13 03:22:39;;;;;;;3.58;1.60;;;12.80;69.70;;;;;;5058505;28;20124;-59
2021/05/13 03:25:06;;;;;;;4.53;1.40;;;12.80;69.80;;;;;;5059267;28;20442;-59
2021/05/13 03:30:06;;;;;;;33.30;1.60;;;12.80;70.10;;;;;;5072395;28;20025;-59
2021/05/13 03:32:32;;;;;;;12.55;1.48;;;12.70;70.10;;;;;;5072867;28;20111;-59
2021/05/13 03:34:57;;;;;;;4.10;0.95;;;12.70;70.30;;;;;;5071661;28;20510;-59
2021/05/13 03:37:27;;;;;;;1.33;0.90;;;12.70;70.40;;;;;;5071872;28;20020;-59
2021/05/13 03:39:54;;;;;;;1.50;1.08;;;12.70;70.50;;;;;;5072888;28;20375;-59
2021/05/13 03:42:20;;;;;;;0.98;0.90;;;12.70;70.60;;;;;;5073200;28;20042;-59
2021/05/13 03:44:49;;;;;;;3.10;1.15;;;12.60;70.80;;;;;;5072256;28;20550;-59
2021/05/13 03:47:15;;;;;;;2.47;1.08;;;12.60;70.90;;;;;;5071676;28;20025;-59
2021/05/13 03:49:41;;;;;;;0.90;0.90;;;12.60;71.00;;;;;;5072963;28;20039;-60
2021/05/13 03:52:07;;;;;;;0.95;0.80;;;12.60;71.00;;;;;;5072158;28;20021;-59
2021/05/13 03:54:33;;;;;;;0.95;0.88;;;12.50;71.10;;;;;;5071122;28;20032;-59
2021/05/13 03:56:59;;;;;;;1.50;1.30;;;12.60;71.20;;;;;;5054104;28;20053;-59
2021/05/13 03:59:25;;;;;;;1.73;1.27;;;12.50;71.20;;;;;;5067660;28;20065;-60
2021/05/13 04:02:11;;;;;;;2.20;1.20;;;12.50;71.40;;;;;;5062097;28;20123;-59
2021/05/13 04:04:37;;;;;;;4.07;1.75;;;12.50;71.40;;;;;;5066488;28;20131;-59
2021/05/13 04:07:05;;;;;;;2.50;1.70;;;12.50;71.50;;;;;;5067860;28;20040;-59
2021/05/13 04:09:30;;;;;;;4.65;1.70;;;12.50;71.60;;;;;;5072633;28;20056;-59
2021/05/13 04:11:56;;;;;;;5.35;2.28;;;12.40;71.80;;;;;;5072107;28;20063;-59
2021/05/13 04:14:22;;;;;;;4.93;2.30;;;12.40;71.90;;;;;;5072544;28;20519;-59
2021/05/13 04:16:55;;;;;;;7.22;2.17;;;12.40;72.00;;;;;;5072556;28;20057;-59
2021/05/13 04:19:21;;;;;;;5.72;2.00;;;12.40;72.20;;;;;;5071441;28;20107;-59
2021/05/13 04:21:47;;;;;;;2.00;1.73;;;12.40;72.30;;;;;;5072807;28;20028;-59
2021/05/13 04:24:14;;;;;;;6.32;1.80;;;12.40;72.30;;;;;;5072370;28;20468;-59
2021/05/13 04:26:41;;;;;;;6.10;2.10;;;12.40;72.30;;;;;;5071756;28;20476;-59
2021/05/13 04:29:10;;;;;;;4.78;2.10;;;12.40;72.30;;;;;;5066910;28;20032;-59
2021/05/13 04:31:36;;;;;;;5.45;1.90;;;12.40;72.20;;;;;;5071723;28;20044;-59
2021/05/13 04:34:03;;;;;;;7.07;2.45;;;12.40;72.20;;;;;;5071512;28;20020;-59
2021/05/13 04:36:29;;;;;;;4.88;2.40;;;12.40;72.40;;;;;;5071895;28;20116;-59
2021/05/13 04:38:55;;;;;;;5.70;2.72;;;12.40;72.60;;;;;;5071925;28;20111;-59
2021/05/13 04:41:21;;;;;;;8.07;2.42;;;12.40;72.80;;;;;;5071112;28;20028;-59
2021/05/13 04:43:47;;;;;;;7.70;2.65;;;12.40;72.90;;;;;;5072415;28;20036;-59
2021/05/13 04:46:13;;;;;;;8.18;3.38;;;12.40;72.90;;;;;;5067803;28;20131;-59
2021/05/13 04:51:21;;;;;;;4.75;2.53;;;12.40;73.20;;;;;;5068520;28;20033;-59
2021/05/13 04:53:48;;;;;;;8.75;2.67;;;12.40;73.30;;;;;;5069824;28;20027;-59
2021/05/13 04:56:15;;;;;;;11.45;3.35;;;12.40;73.40;;;;;;5069266;28;20045;-58
2021/05/13 04:58:41;;;;;;;8.00;2.97;;;12.40;73.50;;;;;;5069501;28;20055;-59
2021/05/13 05:01:06;;;;;;;6.47;2.95;;;12.40;73.60;;;;;;5069826;28;20033;-59
2021/05/13 05:03:32;;;;;;;9.73;3.08;;;12.40;73.70;;;;;;5068193;28;20050;-59
2021/05/13 05:05:58;;;;;;;7.15;3.08;;;12.30;73.80;;;;;;5070203;28;20024;-59
2021/05/13 05:08:23;;;;;;;7.60;3.10;;;12.40;74.00;;;;;;5062573;28;20025;-59
2021/05/13 05:10:49;;;;;;;6.45;2.95;;;12.30;74.10;;;;;;5068713;28;20017;-59
2021/05/13 05:13:14;;;;;;;12.38;3.20;;;12.40;74.50;;;;;;5067143;28;20045;-59
2021/05/13 05:15:40;;;;;;;6.90;3.00;;;12.40;74.60;;;;;;5065947;28;20032;-59
2021/05/13 05:18:06;;;;;;;10.25;3.05;;;12.30;74.80;;;;;;5071800;28;20024;-59
2021/05/13 05:20:31;;;;;;;8.68;3.60;;;12.40;75.00;;;;;;5071439;28;20036;-59
2021/05/13 05:22:57;;;;;;;6.75;3.58;;;12.40;75.20;;;;;;5070784;28;20056;-59
2021/05/13 05:25:23;;;;;;;7.50;3.83;;;12.40;75.40;;;;;;5071589;28;20115;-59
2021/05/13 05:27:48;;;;;;;6.05;2.88;;;12.30;75.50;;;;;;5063153;28;20028;-59
2021/05/13 05:30:15;;;;;;;10.73;3.67;;;12.40;75.70;;;;;;5058919;28;20017;-59
2021/05/13 05:32:41;;;;;;;7.93;3.20;;;12.40;76.00;;;;;;5060660;28;20021;-59
2021/05/13 05:35:07;;;;;;;9.82;3.00;;;12.40;76.20;;;;;;5062681;28;20482;-59
2021/05/13 05:37:33;;;;;;;10.63;3.58;;;12.40;76.50;;;;;;5074353;28;20039;-59
2021/05/13 05:40:01;;;;;;;8.20;3.22;;;12.40;76.80;;;;;;5074727;28;20032;-59
2021/05/13 05:42:26;;;;;;;9.32;3.63;;;12.40;77.20;;;;;;5074678;28;20029;-59
2021/05/13 05:44:52;;;;;;;11.63;3.40;;;12.40;77.50;;;;;;5074147;28;20032;-59
2021/05/13 05:47:18;;;;;;;14.68;4.07;;;12.50;77.80;;;;;;5073388;28;20047;-59
2021/05/13 05:49:44;;;;;;;13.65;4.40;;;12.50;78.20;;;;;;5073749;28;20028;-59
2021/05/13 05:52:11;;;;;;;16.60;4.70;;;12.50;78.30;;;;;;5074598;28;20078;-59
2021/05/13 05:54:36;;;;;;;13.45;4.78;;;12.60;78.70;;;;;;5075226;28;20027;-59
2021/05/13 05:57:02;;;;;;;10.18;4.72;;;12.60;79.00;;;;;;5052945;28;20053;-59
2021/05/13 05:59:28;;;;;;;14.80;5.00;;;12.60;79.30;;;;;;5061136;28;20028;-59
2021/05/13 06:01:53;;;;;;;16.50;5.30;;;12.60;79.60;;;;;;5064794;28;20029;-59
2021/05/13 06:04:25;;;;;;;22.55;5.80;;;12.60;80.00;;;;;;5063333;28;20056;-59
2021/05/13 06:06:51;;;;;;;22.40;5.55;;;12.70;80.80;;;;;;5067367;28;20089;-59
2021/05/13 06:09:16;;;;;;;16.58;4.90;;;12.70;80.90;;;;;;5074745;28;20468;-59
2021/05/13 06:11:42;;;;;;;15.98;5.07;;;12.70;81.10;;;;;;5068717;28;20121;-59
2021/05/13 06:14:08;;;;;;;17.00;4.93;;;12.70;81.20;;;;;;5069621;28;20070;-59
2021/05/13 06:16:33;;;;;;;16.42;4.82;;;12.70;81.50;;;;;;5074690;28;20093;-59
2021/05/13 06:19:01;;;;;;;20.13;5.28;;;12.70;81.80;;;;;;5073858;28;20031;-60
2021/05/13 06:21:27;;;;;;;20.90;5.50;;;12.80;82.10;;;;;;5074592;28;20032;-60
2021/05/13 06:23:56;;;;;;;24.30;6.18;;;12.70;82.10;;;;;;5074549;28;20021;-59
2021/05/13 06:26:27;;;;;;;17.60;5.00;;;12.80;82.40;;;;;;5073690;28;20028;-59
2021/05/13 06:28:53;;;;;;;20.98;5.60;;;12.80;82.50;;;;;;5073194;28;20442;-59
2021/05/13 06:31:19;;;;;;;18.55;5.10;;;12.90;82.70;;;;;;5074300;28;20028;-59
2021/05/13 06:33:45;;;;;;;22.42;5.45;;;12.90;82.60;;;;;;5073755;28;20495;-59
2021/05/13 06:36:10;;;;;;;20.60;4.80;;;13.00;82.70;;;;;;5074081;28;20036;-59
2021/05/13 06:38:37;;;;;;;19.90;5.10;;;12.90;82.90;;;;;;5074153;28;20028;-59
2021/05/13 06:41:05;;;;;;;23.95;4.65;;;13.00;82.90;;;;;;5073817;28;20028;-59
2021/05/13 06:43:32;;;;;;;14.23;3.63;;;13.00;83.00;;;;;;5073621;28;20487;-59
2021/05/13 06:45:58;;;;;;;21.02;3.63;;;13.00;83.00;;;;;;5073605;28;20115;-59
2021/05/13 06:48:23;;;;;;;13.30;3.60;;;13.10;82.80;;;;;;5073924;28;20107;-59
2021/05/13 06:50:49;;;;;;;15.90;3.80;;;13.10;82.90;;;;;;5073845;28;20028;-59
2021/05/13 06:53:14;;;;;;;14.10;3.30;;;13.10;82.70;;;;;;5061429;28;20167;-59
2021/05/13 06:55:40;;;;;;;16.40;3.20;;;13.10;82.70;;;;;;5073255;28;20028;-58
2021/05/13 06:58:06;;;;;;;14.48;3.13;;;13.10;82.70;;;;;;5073124;28;20031;-59
2021/05/13 07:00:32;;;;;;;10.23;3.20;;;13.20;82.60;;;;;;5063732;28;20060;-59
2021/05/13 07:02:57;;;;;;;14.77;2.90;;;13.20;82.40;;;;;;5073217;28;20037;-59
2021/05/13 07:05:23;;;;;;;15.30;3.58;;;13.20;82.30;;;;;;5072675;28;20039;-59
2021/05/13 07:07:49;;;;;;;11.02;3.08;;;13.20;82.50;;;;;;5066772;28;20032;-60
2021/05/13 07:10:14;;;;;;;23.45;3.85;;;13.30;82.40;;;;;;5060686;28;20053;-59
2021/05/13 07:12:41;;;;;;;15.05;3.90;;;13.30;82.20;;;;;;5073021;28;20033;-60
2021/05/13 07:15:07;;;;;;;19.33;3.80;;;13.40;81.90;;;;;;5063698;28;20426;-59
2021/05/13 07:17:33;;;;;;;9.40;3.13;;;13.30;81.70;;;;;;5072433;28;20024;-59
2021/05/13 07:20:02;;;;;;;10.90;3.20;;;13.40;81.90;;;;;;5072996;28;20407;-62
2021/05/13 07:22:28;;;;;;;15.50;3.90;;;13.40;81.60;;;;;;5071885;28;20024;-60
2021/05/13 07:24:56;;;;;;;8.90;3.17;;;13.50;81.70;;;;;;5060234;28;20563;-69
2021/05/13 07:27:22;;;;;;;17.90;3.47;;;13.50;81.30;;;;;;5054905;28;20031;-60
2021/05/13 07:29:48;;;;;;;11.15;3.08;;;13.50;81.30;;;;;;5052591;28;20127;-60
2021/05/13 07:32:13;;;;;;;15.45;3.15;;;13.60;80.90;;;;;;5061345;28;20071;-60
2021/05/13 07:34:39;;;;;;;4.97;1.73;;;13.60;81.00;;;;;;5052769;28;20024;-60
2021/05/13 07:37:05;;;;;;;6.57;2.13;;;13.60;80.40;;;;;;5051714;28;20090;-60
2021/05/13 07:39:30;;;;;;;10.65;3.13;;;13.70;80.00;;;;;;5064072;28;20506;-60
2021/05/13 07:41:56;;;;;;;9.15;3.08;;;13.70;80.00;;;;;;5068371;28;20040;-60
2021/05/13 07:44:22;;;;;;;9.57;3.35;;;13.70;79.60;;;;;;5071516;28;20029;-59
2021/05/13 07:46:49;;;;;;;10.30;2.78;;;13.80;79.70;;;;;;5072653;28;20044;-60
2021/05/13 07:49:14;;;;;;;11.27;2.78;;;13.80;79.60;;;;;;5071847;28;20025;-60
2021/05/13 07:51:43;;;;;;;12.07;3.10;;;13.80;79.70;;;;;;5061701;28;20099;-60
2021/05/13 07:54:09;;;;;;;10.57;3.00;;;13.90;79.80;;;;;;5071925;28;20430;-60
2021/05/13 07:56:35;;;;;;;6.57;2.00;;;13.80;79.90;;;;;;5070024;28;20491;-60
2021/05/13 07:59:01;;;;;;;7.95;2.60;;;13.90;79.90;;;;;;5072505;28;20028;-60
2021/05/13 08:01:26;;;;;;;8.40;2.55;;;14.00;79.80;;;;;;5072355;28;20430;-60
2021/05/13 08:03:52;;;;;;;7.63;2.92;;;14.00;79.70;;;;;;5070042;28;20021;-60
2021/05/13 08:06:18;;;;;;;10.73;3.75;;;14.10;79.80;;;;;;5072059;28;21523;-59
2021/05/13 08:08:43;;;;;;;9.18;2.80;;;14.10;79.70;;;;;;5072319;28;20020;-59
2021/05/13 08:11:09;;;;;;;8.18;2.50;;;14.10;79.50;;;;;;5071385;28;20028;-60
2021/05/13 08:13:35;;;;;;;7.60;2.45;;;14.20;79.10;;;;;;5067262;28;20025;-60
2021/05/13 08:16:02;;;;;;;4.68;2.05;;;14.20;79.10;;;;;;5057423;28;20127;-60
2021/05/13 08:18:28;;;;;;;7.32;2.95;;;14.40;78.90;;;;;;5060168;28;20568;-60
2021/05/13 08:20:54;;;;;;;10.60;2.45;;;14.40;78.50;;;;;;5059845;28;20075;-60
2021/05/13 08:23:19;;;;;;;7.63;2.15;;;14.40;78.30;;;;;;5059713;28;20024;-60
2021/05/13 08:25:45;;;;;;;6.53;1.70;;;14.50;77.80;;;;;;5059780;28;20086;-60
2021/05/13 08:28:11;;;;;;;5.07;1.88;;;14.50;77.40;;;;;;5070845;28;20415;-60
2021/05/13 08:30:36;;;;;;;4.45;1.73;;;14.60;76.80;;;;;;5054479;28;20029;-60
2021/05/13 08:33:05;;;;;;;9.20;2.50;;;14.60;76.30;;;;;;5053400;28;20036;-61
2021/05/13 08:35:31;;;;;;;9.82;2.20;;;14.70;76.40;;;;;;5049740;28;20374;-61
2021/05/13 08:37:57;;;;;;;4.10;1.30;;;14.60;76.90;;;;;;5050229;28;20082;-61
2021/05/13 08:40:23;;;;;;;5.50;2.05;;;14.70;76.30;;;;;;5048603;28;20025;-61
2021/05/13 08:42:49;;;;;;;4.13;1.55;;;14.70;75.40;;;;;;5050913;28;20052;-61
2021/05/13 08:45:14;;;;;;;4.30;1.60;;;14.80;75.40;;;;;;5049440;28;20401;-61
2021/05/13 08:47:45;;;;;;;6.45;2.10;;;14.80;75.10;;;;;;5049632;28;20025;-61
2021/05/13 08:50:17;;;;;;;6.15;2.20;;;14.80;75.30;;;;;;5051619;28;20468;-61
2021/05/13 08:52:44;;;;;;;6.88;2.20;;;14.80;75.50;;;;;;5049510;28;20033;-61
2021/05/13 08:55:10;;;;;;;7.97;2.40;;;14.80;75.60;;;;;;5051773;28;20036;-61
2021/05/13 08:57:36;;;;;;;10.20;2.22;;;15.00;75.90;;;;;;5049536;28;20071;-61
2021/05/13 09:00:06;;;;;;;9.98;2.55;;;15.00;75.30;;;;;;5051764;28;20029;-61
2021/05/13 09:02:33;;;;;;;5.63;2.38;;;15.00;75.00;;;;;;5049650;28;20025;-61
2021/05/13 09:05:00;;;;;;;8.60;2.30;;;15.10;74.70;;;;;;5051314;28;20024;-61
2021/05/13 09:07:31;;;;;;;10.60;2.63;;;15.10;74.30;;;;;;5054378;28;20399;-61
2021/05/13 09:10:08;;;;;;;6.85;2.05;;;15.10;73.50;;;;;;5053905;28;20029;-60
2021/05/13 09:12:49;;;;;;;7.32;2.00;;;15.20;73.30;;;;;;5058169;28;20115;-60
2021/05/13 09:15:28;;;;;;;7.75;1.70;;;15.30;73.40;;;;;;5062059;28;20387;-60
2021/05/13 09:17:56;;;;;;;5.85;2.80;;;15.30;73.30;;;;;;5056404;28;20037;-61
2021/05/13 09:20:27;;;;;;;7.78;1.98;;;15.30;73.30;;;;;;5057954;28;20123;-60
2021/05/13 09:23:34;;;;;;;7.40;2.40;;;15.30;72.30;;;;;;5062215;28;20028;-60
2021/05/13 09:26:20;;;;;;;6.53;2.17;;;15.30;72.70;;;;;;5061168;28;20512;-61
2021/05/13 09:28:48;;;;;;;9.50;2.67;;;15.30;73.40;;;;;;5055928;28;20037;-61
2021/05/13 09:31:37;;;;;;;14.85;2.08;;;15.30;73.90;;;;;;5055696;28;20099;-64
2021/05/13 09:34:09;;;;;;;6.88;2.20;;;15.30;73.20;;;;;;5055695;28;20064;-60
2021/05/13 09:36:36;;;;;;;3.08;1.75;;;15.30;73.40;;;;;;5058664;28;20127;-60
2021/05/13 09:39:22;;;;;;;12.15;2.30;;;15.30;73.60;;;;;;5056555;28;20491;-69
2021/05/13 09:42:00;;;;;;;4.35;2.15;;;15.40;74.00;;;;;;5054713;28;20036;-60
2021/05/13 09:44:41;;;;;;;8.75;2.40;;;15.30;74.30;;;;;;5063622;28;20128;-60
2021/05/13 09:47:12;;;;;;;8.75;2.03;;;15.30;73.70;;;;;;5063243;28;20453;-60
2021/05/13 09:49:53;;;;;;;6.05;2.22;;;15.40;73.90;;;;;;5068376;28;20017;-60
2021/05/13 09:52:48;;;;;;;10.77;2.45;;;15.40;74.50;;;;;;5061329;28;20028;-61
2021/05/13 09:55:24;;;;;;;4.88;1.77;;;15.40;74.50;;;;;;5068073;28;20048;-60
2021/05/13 09:58:09;;;;;;;8.23;2.40;;;15.40;73.00;;;;;;5065378;28;20053;-61
2021/05/13 10:00:48;;;;;;;7.55;2.63;;;15.40;73.50;;;;;;5061750;28;20025;-61
2021/05/13 10:03:19;;;;;;;7.35;3.05;;;15.50;73.50;;;;;;5068415;28;20108;-63
2021/05/13 10:05:50;;;;;;;7.82;2.15;;;15.50;73.70;;;;;;5068995;28;20032;-68
2021/05/13 10:08:19;;;;;;;11.60;2.88;;;15.50;74.00;;;;;;5074504;28;20062;-61
2021/05/13 10:10:46;;;;;;;4.47;2.15;;;15.50;74.20;;;;;;5073721;28;20059;-61
2021/05/13 10:13:16;;;;;;;4.63;2.00;;;15.60;74.00;;;;;;5074597;28;20396;-61
2021/05/13 10:15:42;;;;;;;9.43;2.15;;;15.60;74.00;;;;;;5074562;28;20458;-61
2021/05/13 10:18:26;;;;;;;9.77;2.25;;;15.60;73.60;;;;;;5072877;28;20085;-61
2021/05/13 10:20:56;;;;;;;10.18;2.70;;;15.70;73.40;;;;;;5074464;28;20032;-59
2021/05/13 10:23:22;;;;;;;8.68;3.17;;;15.70;73.80;;;;;;5066131;28;20028;-60
2021/05/13 10:25:48;;;;;;;9.70;2.83;;;15.70;73.90;;;;;;5068196;28;20025;-59
2021/05/13 10:28:26;;;;;;;5.78;2.20;;;15.80;73.70;;;;;;5074754;28;20047;-59
2021/05/13 10:31:00;;;;;;;4.28;2.17;;;15.70;73.90;;;;;;5073600;28;20537;-59
2021/05/13 10:33:41;;;;;;;10.05;2.90;;;15.80;74.40;;;;;;5074359;28;20376;-60
2021/05/13 10:36:08;;;;;;;9.60;2.70;;;15.90;74.10;;;;;;5074131;28;20396;-60
2021/05/13 10:38:42;;;;;;;9.90;2.42;;;15.90;74.20;;;;;;5073752;28;20028;-60
2021/05/13 10:41:33;;;;;;;7.93;2.25;;;15.90;73.10;;;;;;5074057;28;20108;-60
2021/05/13 10:44:19;;;;;;;11.45;2.92;;;16.00;73.90;;;;;;5068758;28;20050;-61
2021/05/13 10:46:53;;;;;;;6.57;2.55;;;16.00;73.40;;;;;;5065578;28;20491;-61
2021/05/13 10:49:25;;;;;;;;;;;16.00;73.70;;;;;;5063567;28;20096;-63
2021/05/13 10:52:17;;;;;;;4.57;2.00;;;16.00;74.40;;;;;;5072229;28;19908;-60
2021/05/13 10:54:45;;;;;;;12.52;3.28;;;16.00;74.00;;;;;;5073267;28;20502;-60
2021/05/13 10:57:20;;;;;;;7.45;3.05;;;16.00;74.20;;;;;;5070931;28;20040;-60
2021/05/13 11:00:05;;;;;;;6.93;3.35;;;16.00;73.90;;;;;;5069768;28;20440;-60
2021/05/13 11:02:39;;;;;;;9.45;2.53;;;16.00;74.10;;;;;;5070741;28;20051;-60
2021/05/13 11:05:26;;;;;;;8.73;3.50;;;16.00;73.90;;;;;;5070228;28;20021;-63
2021/05/13 11:07:52;;;;;;;3.60;1.92;;;16.00;74.00;;;;;;5069867;28;20024;-60
2021/05/13 11:10:18;;;;;;;5.68;2.20;;;16.00;74.30;;;;;;5073133;28;20033;-60
2021/05/13 11:12:44;;;;;;;10.85;2.83;;;16.00;74.60;;;;;;5072090;28;20036;-60
2021/05/13 11:15:14;;;;;;;6.85;2.22;;;16.00;75.10;;;;;;5055873;28;20033;-66
2021/05/13 11:18:00;;;;;;;8.63;2.15;;;16.00;74.20;;;;;;5054537;28;20071;-60
2021/05/13 11:20:39;;;;;;;8.75;1.85;;;16.00;74.60;;;;;;5054980;28;20089;-60
2021/05/13 11:23:17;;;;;;;4.82;1.90;;;16.00;73.70;;;;;;5055449;28;20029;-59
2021/05/13 11:25:49;;;;;;;7.18;3.22;;;16.10;73.40;;;;;;5054262;28;20068;-60
2021/05/13 11:28:30;;;;;;;3.47;1.70;;;16.10;73.90;;;;;;5053236;28;20064;-60
2021/05/13 11:31:05;;;;;;;4.28;2.13;;;16.10;74.40;;;;;;5058040;28;20028;-60
2021/05/13 11:33:48;;;;;;;8.57;2.80;;;16.10;73.40;;;;;;5053259;28;20029;-60
2021/05/13 11:36:16;;;;;;;3.50;1.80;;;16.20;73.50;;;;;;5056057;28;20095;-60
2021/05/13 11:38:42;;;;;;;7.65;2.30;;;16.10;73.00;;;;;;5052684;28;20495;-60
2021/05/13 11:41:09;;;;;;;6.80;2.03;;;16.20;72.50;;;;;;5053784;28;20025;-60
2021/05/13 11:43:39;;;;;;;6.88;2.25;;;16.20;72.00;;;;;;5053077;28;20089;-60
2021/05/13 11:46:10;;;;;;;8.18;1.98;;;16.30;72.40;;;;;;5051544;28;20456;-60
2021/05/13 11:48:47;;;;;;;5.47;2.10;;;16.30;72.50;;;;;;5053326;28;20137;-60
2021/05/13 11:51:28;;;;;;;4.25;1.55;;;16.30;72.50;;;;;;5053327;28;20025;-60
2021/05/13 11:53:59;;;;;;;8.50;2.10;;;16.30;72.40;;;;;;5055465;28;20033;-60
2021/05/13 11:56:27;;;;;;;7.95;2.60;;;16.40;71.90;;;;;;5054459;28;20507;-60
2021/05/13 11:59:01;;;;;;;7.68;2.50;;;16.40;72.50;;;;;;5056321;28;20185;-60
2021/05/13 12:01:41;;;;;;;6.57;2.58;;;16.40;71.60;;;;;;5068123;28;20058;-60
2021/05/13 12:04:12;;;;;;;7.70;2.63;;;16.40;71.50;;;;;;5052771;28;20074;-60
2021/05/13 12:06:58;;;;;;;5.72;2.33;;;16.50;71.00;;;;;;5059190;28;20399;-60
2021/05/13 12:09:25;;;;;;;7.80;2.22;;;16.50;71.90;;;;;;5059744;28;20036;-61
2021/05/13 12:11:52;;;;;;;10.43;2.58;;;16.60;71.00;;;;;;5052591;28;20492;-60
2021/05/13 12:14:28;;;;;;;11.63;2.67;;;16.60;71.20;;;;;;5070997;28;20040;-61
2021/05/13 12:16:55;;;;;;;5.13;2.17;;;16.60;71.30;;;;;;5056189;28;20377;-60
2021/05/13 12:19:21;;;;;;;4.43;2.13;;;16.50;71.00;;;;;;5059780;28;20559;-60
2021/05/13 12:21:56;;;;;;;5.38;1.88;;;16.60;71.20;;;;;;5059281;28;20049;-60
2021/05/13 12:24:33;;;;;;;10.13;2.00;;;16.60;69.50;;;;;;5059387;28;20036;-60
2021/05/13 12:26:59;;;;;;;5.78;1.73;;;16.70;69.50;;;;;;5058586;28;20033;-60
2021/05/13 12:29:26;;;;;;;7.22;1.90;;;16.70;69.80;;;;;;5059705;28;20025;-60
2021/05/13 12:31:54;;;;;;;6.22;2.00;;;16.70;70.00;;;;;;5059148;28;20047;-60
2021/05/13 12:34:33;;;;;;;5.78;2.17;;;16.70;71.40;;;;;;5057638;28;20024;-60
2021/05/13 12:36:59;;;;;;;5.60;2.50;;;16.80;71.70;;;;;;5066580;28;20032;-59
2021/05/13 12:39:30;;;;;;;5.07;2.20;;;16.70;71.70;;;;;;5055332;28;20052;-60
2021/05/13 12:41:56;;;;;;;4.60;2.17;;;16.80;70.70;;;;;;5061197;28;20472;-63
2021/05/13 12:44:29;;;;;;;7.85;2.60;;;16.80;70.70;;;;;;5059354;28;20112;-60
2021/05/13 12:47:00;;;;;;;6.40;2.22;;;16.80;70.30;;;;;;5059298;28;20028;-60
2021/05/13 12:49:28;;;;;;;7.72;2.80;;;16.80;71.10;;;;;;5059435;28;20037;-60
2021/05/13 12:52:05;;;;;;;6.53;3.20;;;16.70;71.30;;;;;;5061601;28;20052;-61
2021/05/13 12:54:36;;;;;;;5.18;2.60;;;16.80;71.70;;;;;;5059263;28;20029;-60
2021/05/13 12:57:16;;;;;;;7.05;3.17;;;16.70;71.80;;;;;;5061907;28;20520;-60
2021/05/13 12:59:51;;;;;;;5.68;2.30;;;16.80;72.50;;;;;;5058626;28;20086;-60
2021/05/13 13:02:25;;;;;;;7.75;2.15;;;16.70;72.20;;;;;;5059012;28;20029;-60
2021/05/13 13:04:56;;;;;;;8.07;2.40;;;16.80;71.70;;;;;;5059111;28;20086;-61
2021/05/13 13:07:44;;;;;;;6.60;1.85;;;16.70;72.20;;;;;;5071659;28;20166;-61
2021/05/13 13:10:23;;;;;;;8.52;2.92;;;16.80;71.30;;;;;;5075018;28;20033;-61